KANQ/ANQ METAR and TAF weather

Enter ICAO airport designator
Station Type Date Time Source
KANQ METAR 2017/08/14 21:15 UTC NOAA

KANQ 142115Z AUTO 17005KT 10SM FEW075 27/24 A2985 RMK


Station Type Date Time Source
KANQ Decoded METAR 2017/08/14 21:15 UTC NOAA

Station name not available
Aug 14, 2017 - 05:15 PM EDT / 2017.08.14 2115 UTC
Wind: from the S (170 degrees) at 6 MPH (5 KT):0
Visibility: 10 mile(s):0
Sky conditions: mostly clear
Temperature: 80 F (27 C)
Dew Point: 75 F (24 C)
Relative Humidity: 83%
Pressure (altimeter): 29.85 in. Hg (1010 hPa)
ob: KANQ 142115Z AUTO 17005KT 10SM FEW075 27/24 A2985 RMK
cycle: 21

Station Type Date Time Source
KANQ TAF UTC NOAA

Error!


Example: see airport list